sensor_id;sensor_type;location;lat;lon;timestamp;P1;durP1;ratioP1;P2;durP2;ratioP2
21334;SDS011;10826;52.536;13.432;2022-09-12T00:01:20;3.07;;;2.80;;
21334;SDS011;10826;52.536;13.432;2022-09-12T00:03:56;2.23;;;2.13;;
21334;SDS011;10826;52.536;13.432;2022-09-12T00:06:29;2.70;;;2.50;;
21334;SDS011;10826;52.536;13.432;2022-09-12T00:09:00;2.47;;;2.37;;
21334;SDS011;10826;52.536;13.432;2022-09-12T00:11:33;4.87;;;2.30;;
21334;SDS011;10826;52.536;13.432;2022-09-12T00:14:02;2.57;;;2.47;;
21334;SDS011;10826;52.536;13.432;2022-09-12T00:16:31;2.47;;;2.37;;
21334;SDS011;10826;52.536;13.432;2022-09-12T00:18:58;3.13;;;2.50;;
21334;SDS011;10826;52.536;13.432;2022-09-12T00:21:25;2.53;;;2.37;;
21334;SDS011;10826;52.536;13.432;2022-09-12T00:23:52;2.60;;;2.40;;
21334;SDS011;10826;52.536;13.432;2022-09-12T00:26:18;2.20;;;2.10;;
21334;SDS011;10826;52.536;13.432;2022-09-12T00:28:46;2.40;;;2.00;;
21334;SDS011;10826;52.536;13.432;2022-09-12T00:31:14;2.67;;;2.50;;
21334;SDS011;10826;52.536;13.432;2022-09-12T00:33:43;2.70;;;2.40;;
21334;SDS011;10826;52.536;13.432;2022-09-12T00:36:12;2.50;;;2.40;;
21334;SDS011;10826;52.536;13.432;2022-09-12T00:38:44;2.20;;;2.10;;
21334;SDS011;10826;52.536;13.432;2022-09-12T00:41:22;2.40;;;2.23;;
21334;SDS011;10826;52.536;13.432;2022-09-12T00:44:03;2.47;;;2.27;;
21334;SDS011;10826;52.536;13.432;2022-09-12T00:46:48;2.27;;;2.13;;
21334;SDS011;10826;52.536;13.432;2022-09-12T00:49:33;2.33;;;2.13;;
21334;SDS011;10826;52.536;13.432;2022-09-12T00:52:14;2.30;;;2.20;;
21334;SDS011;10826;52.536;13.432;2022-09-12T00:55:12;2.20;;;2.10;;
21334;SDS011;10826;52.536;13.432;2022-09-12T01:00:22;2.20;;;2.10;;
21334;SDS011;10826;52.536;13.432;2022-09-12T01:02:58;2.37;;;2.10;;
21334;SDS011;10826;52.536;13.432;2022-09-12T01:05:30;2.00;;;1.90;;
21334;SDS011;10826;52.536;13.432;2022-09-12T01:08:03;2.07;;;1.97;;
21334;SDS011;10826;52.536;13.432;2022-09-12T01:10:29;2.30;;;2.20;;
21334;SDS011;10826;52.536;13.432;2022-09-12T01:12:59;2.20;;;2.10;;
21334;SDS011;10826;52.536;13.432;2022-09-12T01:15:29;2.27;;;2.03;;
21334;SDS011;10826;52.536;13.432;2022-09-12T01:26:12;2.40;;;2.30;;
21334;SDS011;10826;52.536;13.432;2022-09-12T01:35:56;2.60;;;2.20;;
21334;SDS011;10826;52.536;13.432;2022-09-12T01:39:01;2.70;;;2.50;;
21334;SDS011;10826;52.536;13.432;2022-09-12T01:44:24;2.97;;;2.67;;
21334;SDS011;10826;52.536;13.432;2022-09-12T01:47:30;2.97;;;2.77;;
21334;SDS011;10826;52.536;13.432;2022-09-12T01:50:13;2.97;;;2.77;;
21334;SDS011;10826;52.536;13.432;2022-09-12T01:52:52;3.73;;;2.93;;
21334;SDS011;10826;52.536;13.432;2022-09-12T01:55:30;3.00;;;2.90;;
21334;SDS011;10826;52.536;13.432;2022-09-12T02:01:19;3.53;;;3.23;;
21334;SDS011;10826;52.536;13.432;2022-09-12T02:06:56;3.13;;;2.93;;
21334;SDS011;10826;52.536;13.432;2022-09-12T02:09:54;3.80;;;3.20;;
21334;SDS011;10826;52.536;13.432;2022-09-12T02:12:30;3.10;;;2.80;;
21334;SDS011;10826;52.536;13.432;2022-09-12T02:15:26;3.30;;;3.00;;
21334;SDS011;10826;52.536;13.432;2022-09-12T02:18:04;3.00;;;2.80;;
21334;SDS011;10826;52.536;13.432;2022-09-12T02:23:10;4.20;;;2.77;;
21334;SDS011;10826;52.536;13.432;2022-09-12T02:25:44;6.30;;;3.60;;
21334;SDS011;10826;52.536;13.432;2022-09-12T02:28:20;6.50;;;3.40;;
21334;SDS011;10826;52.536;13.432;2022-09-12T02:36:51;3.40;;;3.20;;
21334;SDS011;10826;52.536;13.432;2022-09-12T02:39:43;2.97;;;2.77;;
21334;SDS011;10826;52.536;13.432;2022-09-12T02:42:09;3.07;;;2.87;;
21334;SDS011;10826;52.536;13.432;2022-09-12T02:44:35;3.10;;;2.90;;
21334;SDS011;10826;52.536;13.432;2022-09-12T02:47:05;6.13;;;3.20;;
21334;SDS011;10826;52.536;13.432;2022-09-12T02:49:39;5.30;;;3.10;;
21334;SDS011;10826;52.536;13.432;2022-09-12T02:52:05;4.10;;;3.70;;
21334;SDS011;10826;52.536;13.432;2022-09-12T02:54:31;3.43;;;3.23;;
21334;SDS011;10826;52.536;13.432;2022-09-12T02:56:57;4.80;;;3.40;;
21334;SDS011;10826;52.536;13.432;2022-09-12T02:59:23;3.93;;;3.63;;
21334;SDS011;10826;52.536;13.432;2022-09-12T03:02:05;3.93;;;3.63;;
21334;SDS011;10826;52.536;13.432;2022-09-12T03:05:00;3.83;;;3.53;;
21334;SDS011;10826;52.536;13.432;2022-09-12T03:11:07;4.00;;;3.70;;
21334;SDS011;10826;52.536;13.432;2022-09-12T03:16:40;3.93;;;3.50;;
21334;SDS011;10826;52.536;13.432;2022-09-12T03:24:49;4.97;;;4.40;;
21334;SDS011;10826;52.536;13.432;2022-09-12T03:27:32;4.00;;;3.70;;
21334;SDS011;10826;52.536;13.432;2022-09-12T03:30:05;4.57;;;4.10;;
21334;SDS011;10826;52.536;13.432;2022-09-12T03:35:10;4.40;;;4.00;;
21334;SDS011;10826;52.536;13.432;2022-09-12T03:37:38;3.97;;;3.67;;
21334;SDS011;10826;52.536;13.432;2022-09-12T03:40:05;5.27;;;3.70;;
21334;SDS011;10826;52.536;13.432;2022-09-12T03:42:33;7.97;;;4.10;;
21334;SDS011;10826;52.536;13.432;2022-09-12T03:44:59;4.23;;;3.70;;
21334;SDS011;10826;52.536;13.432;2022-09-12T03:47:25;4.90;;;4.17;;
21334;SDS011;10826;52.536;13.432;2022-09-12T03:49:51;5.00;;;4.50;;
21334;SDS011;10826;52.536;13.432;2022-09-12T03:52:17;9.17;;;4.07;;
21334;SDS011;10826;52.536;13.432;2022-09-12T03:54:43;4.97;;;3.93;;
21334;SDS011;10826;52.536;13.432;2022-09-12T03:57:09;6.27;;;4.33;;
21334;SDS011;10826;52.536;13.432;2022-09-12T03:59:35;5.03;;;3.90;;
21334;SDS011;10826;52.536;13.432;2022-09-12T04:02:02;5.70;;;4.47;;
21334;SDS011;10826;52.536;13.432;2022-09-12T04:04:29;4.60;;;4.20;;
21334;SDS011;10826;52.536;13.432;2022-09-12T04:06:55;5.90;;;4.47;;
21334;SDS011;10826;52.536;13.432;2022-09-12T04:09:21;5.10;;;4.23;;
21334;SDS011;10826;52.536;13.432;2022-09-12T04:11:48;4.93;;;3.83;;
21334;SDS011;10826;52.536;13.432;2022-09-12T04:14:14;5.33;;;4.83;;
21334;SDS011;10826;52.536;13.432;2022-09-12T04:16:40;5.03;;;4.63;;
21334;SDS011;10826;52.536;13.432;2022-09-12T04:19:06;5.67;;;4.17;;
21334;SDS011;10826;52.536;13.432;2022-09-12T04:21:35;5.23;;;4.83;;
21334;SDS011;10826;52.536;13.432;2022-09-12T04:24:02;5.30;;;4.80;;
21334;SDS011;10826;52.536;13.432;2022-09-12T04:26:28;8.23;;;4.93;;
21334;SDS011;10826;52.536;13.432;2022-09-12T04:28:55;8.17;;;5.20;;
21334;SDS011;10826;52.536;13.432;2022-09-12T04:31:21;6.17;;;5.33;;
21334;SDS011;10826;52.536;13.432;2022-09-12T04:33:55;6.53;;;5.00;;
21334;SDS011;10826;52.536;13.432;2022-09-12T04:36:24;8.57;;;6.23;;
21334;SDS011;10826;52.536;13.432;2022-09-12T04:38:51;13.00;;;7.57;;
21334;SDS011;10826;52.536;13.432;2022-09-12T04:41:22;12.83;;;7.67;;
21334;SDS011;10826;52.536;13.432;2022-09-12T04:43:56;7.73;;;5.50;;
21334;SDS011;10826;52.536;13.432;2022-09-12T04:46:29;6.13;;;5.13;;
21334;SDS011;10826;52.536;13.432;2022-09-12T04:48:59;8.03;;;6.00;;
21334;SDS011;10826;52.536;13.432;2022-09-12T04:51:32;7.23;;;5.37;;
21334;SDS011;10826;52.536;13.432;2022-09-12T04:54:02;6.23;;;5.13;;
21334;SDS011;10826;52.536;13.432;2022-09-12T04:56:37;5.63;;;4.80;;
21334;SDS011;10826;52.536;13.432;2022-09-12T04:59:05;6.70;;;5.70;;
21334;SDS011;10826;52.536;13.432;2022-09-12T05:01:33;9.27;;;5.57;;
21334;SDS011;10826;52.536;13.432;2022-09-12T05:04:00;6.13;;;5.53;;
21334;SDS011;10826;52.536;13.432;2022-09-12T05:06:28;6.57;;;5.83;;
21334;SDS011;10826;52.536;13.432;2022-09-12T05:08:57;6.37;;;5.20;;
21334;SDS011;10826;52.536;13.432;2022-09-12T05:11:27;6.63;;;5.23;;
21334;SDS011;10826;52.536;13.432;2022-09-12T05:13:56;6.77;;;5.00;;
21334;SDS011;10826;52.536;13.432;2022-09-12T05:16:23;5.90;;;4.90;;
21334;SDS011;10826;52.536;13.432;2022-09-12T05:18:51;11.67;;;5.20;;
21334;SDS011;10826;52.536;13.432;2022-09-12T05:21:19;18.90;;;5.77;;
21334;SDS011;10826;52.536;13.432;2022-09-12T05:23:50;6.47;;;5.37;;
21334;SDS011;10826;52.536;13.432;2022-09-12T05:26:21;7.27;;;4.97;;
21334;SDS011;10826;52.536;13.432;2022-09-12T05:28:48;9.87;;;6.00;;
21334;SDS011;10826;52.536;13.432;2022-09-12T05:31:17;5.57;;;5.00;;
21334;SDS011;10826;52.536;13.432;2022-09-12T05:33:51;9.03;;;5.73;;
21334;SDS011;10826;52.536;13.432;2022-09-12T05:36:20;7.00;;;5.40;;
21334;SDS011;10826;52.536;13.432;2022-09-12T05:38:51;6.73;;;5.43;;
21334;SDS011;10826;52.536;13.432;2022-09-12T05:41:22;6.07;;;5.27;;
21334;SDS011;10826;52.536;13.432;2022-09-12T05:43:52;7.03;;;6.00;;
21334;SDS011;10826;52.536;13.432;2022-09-12T05:46:21;6.53;;;5.93;;
21334;SDS011;10826;52.536;13.432;2022-09-12T05:48:50;7.60;;;6.27;;
21334;SDS011;10826;52.536;13.432;2022-09-12T05:51:18;6.40;;;5.80;;
21334;SDS011;10826;52.536;13.432;2022-09-12T05:53:51;7.70;;;5.37;;
21334;SDS011;10826;52.536;13.432;2022-09-12T05:56:29;9.40;;;6.87;;
21334;SDS011;10826;52.536;13.432;2022-09-12T05:59:09;10.80;;;6.20;;
21334;SDS011;10826;52.536;13.432;2022-09-12T06:01:46;7.30;;;5.60;;
21334;SDS011;10826;52.536;13.432;2022-09-12T06:04:12;6.27;;;5.67;;
21334;SDS011;10826;52.536;13.432;2022-09-12T06:06:40;5.90;;;4.73;;
21334;SDS011;10826;52.536;13.432;2022-09-12T06:09:09;6.93;;;5.00;;
21334;SDS011;10826;52.536;13.432;2022-09-12T06:11:37;8.60;;;5.10;;
21334;SDS011;10826;52.536;13.432;2022-09-12T06:14:08;7.80;;;5.30;;
21334;SDS011;10826;52.536;13.432;2022-09-12T06:16:36;6.80;;;5.23;;
21334;SDS011;10826;52.536;13.432;2022-09-12T06:19:04;5.60;;;5.00;;
21334;SDS011;10826;52.536;13.432;2022-09-12T06:21:36;6.87;;;5.10;;
21334;SDS011;10826;52.536;13.432;2022-09-12T06:24:04;7.50;;;5.20;;
21334;SDS011;10826;52.536;13.432;2022-09-12T06:26:31;5.63;;;5.07;;
21334;SDS011;10826;52.536;13.432;2022-09-12T06:28:58;5.13;;;4.70;;
21334;SDS011;10826;52.536;13.432;2022-09-12T06:31:26;5.97;;;5.37;;
21334;SDS011;10826;52.536;13.432;2022-09-12T06:33:58;6.97;;;5.43;;
21334;SDS011;10826;52.536;13.432;2022-09-12T06:36:28;5.37;;;4.50;;
21334;SDS011;10826;52.536;13.432;2022-09-12T06:39:02;7.63;;;5.00;;
21334;SDS011;10826;52.536;13.432;2022-09-12T06:41:35;11.67;;;5.30;;
21334;SDS011;10826;52.536;13.432;2022-09-12T06:44:01;5.63;;;4.53;;
21334;SDS011;10826;52.536;13.432;2022-09-12T06:46:28;6.93;;;6.30;;
21334;SDS011;10826;52.536;13.432;2022-09-12T06:48:55;9.70;;;5.20;;
21334;SDS011;10826;52.536;13.432;2022-09-12T06:51:23;4.97;;;4.50;;
21334;SDS011;10826;52.536;13.432;2022-09-12T06:53:50;5.93;;;4.27;;
21334;SDS011;10826;52.536;13.432;2022-09-12T06:56:22;6.77;;;5.00;;
21334;SDS011;10826;52.536;13.432;2022-09-12T06:58:50;5.57;;;4.97;;
21334;SDS011;10826;52.536;13.432;2022-09-12T07:01:21;7.77;;;5.27;;
21334;SDS011;10826;52.536;13.432;2022-09-12T07:04:00;9.87;;;5.17;;
21334;SDS011;10826;52.536;13.432;2022-09-12T07:06:35;10.63;;;6.10;;
21334;SDS011;10826;52.536;13.432;2022-09-12T07:09:05;6.50;;;5.73;;
21334;SDS011;10826;52.536;13.432;2022-09-12T07:11:35;16.40;;;7.00;;
21334;SDS011;10826;52.536;13.432;2022-09-12T07:14:05;7.60;;;6.60;;
21334;SDS011;10826;52.536;13.432;2022-09-12T07:16:33;8.37;;;6.77;;
21334;SDS011;10826;52.536;13.432;2022-09-12T07:19:01;9.40;;;6.93;;
21334;SDS011;10826;52.536;13.432;2022-09-12T07:21:29;7.10;;;6.40;;
21334;SDS011;10826;52.536;13.432;2022-09-12T07:23:56;9.07;;;6.73;;
21334;SDS011;10826;52.536;13.432;2022-09-12T07:26:23;13.87;;;6.77;;
21334;SDS011;10826;52.536;13.432;2022-09-12T07:28:54;7.07;;;6.40;;
21334;SDS011;10826;52.536;13.432;2022-09-12T07:31:22;6.77;;;6.03;;
21334;SDS011;10826;52.536;13.432;2022-09-12T07:33:51;6.10;;;5.60;;
21334;SDS011;10826;52.536;13.432;2022-09-12T07:36:19;6.70;;;6.00;;
21334;SDS011;10826;52.536;13.432;2022-09-12T07:38:52;8.03;;;6.30;;
21334;SDS011;10826;52.536;13.432;2022-09-12T07:41:20;5.83;;;5.33;;
21334;SDS011;10826;52.536;13.432;2022-09-12T07:43:57;5.97;;;5.43;;
21334;SDS011;10826;52.536;13.432;2022-09-12T07:46:25;7.63;;;6.33;;
21334;SDS011;10826;52.536;13.432;2022-09-12T07:48:54;6.47;;;5.90;;
21334;SDS011;10826;52.536;13.432;2022-09-12T07:51:22;7.47;;;6.70;;
21334;SDS011;10826;52.536;13.432;2022-09-12T07:53:50;6.63;;;6.03;;
21334;SDS011;10826;52.536;13.432;2022-09-12T07:56:17;6.13;;;5.63;;
21334;SDS011;10826;52.536;13.432;2022-09-12T07:58:45;6.70;;;5.93;;
21334;SDS011;10826;52.536;13.432;2022-09-12T08:01:17;6.43;;;5.27;;
21334;SDS011;10826;52.536;13.432;2022-09-12T08:03:46;4.93;;;4.40;;
21334;SDS011;10826;52.536;13.432;2022-09-12T08:06:17;6.77;;;4.40;;
21334;SDS011;10826;52.536;13.432;2022-09-12T08:08:48;9.87;;;4.60;;
21334;SDS011;10826;52.536;13.432;2022-09-12T08:11:16;5.03;;;4.40;;
21334;SDS011;10826;52.536;13.432;2022-09-12T08:13:47;3.90;;;3.60;;
21334;SDS011;10826;52.536;13.432;2022-09-12T08:16:17;4.00;;;3.70;;
21334;SDS011;10826;52.536;13.432;2022-09-12T08:18:45;4.10;;;3.80;;
21334;SDS011;10826;52.536;13.432;2022-09-12T08:21:14;5.17;;;4.40;;
21334;SDS011;10826;52.536;13.432;2022-09-12T08:23:44;4.33;;;3.73;;
21334;SDS011;10826;52.536;13.432;2022-09-12T08:26:12;3.60;;;3.40;;
21334;SDS011;10826;52.536;13.432;2022-09-12T08:28:38;3.67;;;3.37;;
21334;SDS011;10826;52.536;13.432;2022-09-12T08:31:11;4.67;;;3.97;;
21334;SDS011;10826;52.536;13.432;2022-09-12T08:33:40;7.63;;;3.80;;
21334;SDS011;10826;52.536;13.432;2022-09-12T08:36:10;4.17;;;3.27;;
21334;SDS011;10826;52.536;13.432;2022-09-12T08:38:42;17.90;;;3.37;;
21334;SDS011;10826;52.536;13.432;2022-09-12T08:55:27;4.47;;;2.30;;
21334;SDS011;10826;52.536;13.432;2022-09-12T08:58:05;3.60;;;2.53;;
21334;SDS011;10826;52.536;13.432;2022-09-12T09:01:03;2.93;;;2.53;;
21334;SDS011;10826;52.536;13.432;2022-09-12T09:10:27;6.37;;;1.80;;
21334;SDS011;10826;52.536;13.432;2022-09-12T09:16:13;2.50;;;1.50;;
21334;SDS011;10826;52.536;13.432;2022-09-12T09:19:09;2.03;;;1.80;;
21334;SDS011;10826;52.536;13.432;2022-09-12T09:24:26;1.50;;;1.40;;
21334;SDS011;10826;52.536;13.432;2022-09-12T09:27:12;2.33;;;1.77;;
21334;SDS011;10826;52.536;13.432;2022-09-12T09:30:19;2.60;;;1.80;;
21334;SDS011;10826;52.536;13.432;2022-09-12T09:33:00;3.33;;;1.90;;
21334;SDS011;10826;52.536;13.432;2022-09-12T09:41:04;1.67;;;1.57;;
21334;SDS011;10826;52.536;13.432;2022-09-12T09:44:06;2.10;;;1.40;;
21334;SDS011;10826;52.536;13.432;2022-09-12T09:46:33;2.83;;;1.47;;
21334;SDS011;10826;52.536;13.432;2022-09-12T09:49:01;1.40;;;1.30;;
21334;SDS011;10826;52.536;13.432;2022-09-12T09:51:36;1.53;;;1.10;;
21334;SDS011;10826;52.536;13.432;2022-09-12T10:00:26;1.60;;;1.23;;
21334;SDS011;10826;52.536;13.432;2022-09-12T10:05:49;1.00;;;1.00;;
21334;SDS011;10826;52.536;13.432;2022-09-12T10:08:24;0.80;;;0.80;;
21334;SDS011;10826;52.536;13.432;2022-09-12T10:14:28;1.37;;;1.10;;
21334;SDS011;10826;52.536;13.432;2022-09-12T10:17:26;1.23;;;1.20;;
21334;SDS011;10826;52.536;13.432;2022-09-12T10:19:55;1.80;;;1.10;;
21334;SDS011;10826;52.536;13.432;2022-09-12T10:22:25;1.77;;;1.67;;
21334;SDS011;10826;52.536;13.432;2022-09-12T10:25:02;1.80;;;1.43;;
21334;SDS011;10826;52.536;13.432;2022-09-12T10:27:37;3.30;;;1.20;;
21334;SDS011;10826;52.536;13.432;2022-09-12T10:30:15;4.60;;;1.50;;
21334;SDS011;10826;52.536;13.432;2022-09-12T10:32:45;2.83;;;1.80;;
21334;SDS011;10826;52.536;13.432;2022-09-12T10:35:19;3.83;;;1.40;;
21334;SDS011;10826;52.536;13.432;2022-09-12T10:37:59;1.30;;;1.20;;
21334;SDS011;10826;52.536;13.432;2022-09-12T10:40:33;1.37;;;1.27;;
21334;SDS011;10826;52.536;13.432;2022-09-12T10:46:19;1.20;;;1.20;;
21334;SDS011;10826;52.536;13.432;2022-09-12T10:49:11;1.30;;;1.30;;
21334;SDS011;10826;52.536;13.432;2022-09-12T10:51:46;1.00;;;1.00;;
21334;SDS011;10826;52.536;13.432;2022-09-12T10:54:15;1.57;;;1.50;;
21334;SDS011;10826;52.536;13.432;2022-09-12T11:03:38;1.30;;;1.20;;
21334;SDS011;10826;52.536;13.432;2022-09-12T11:05:58;1.60;;;1.50;;
21334;SDS011;10826;52.536;13.432;2022-09-12T11:11:42;2.70;;;1.70;;
21334;SDS011;10826;52.536;13.432;2022-09-12T11:19:45;2.90;;;1.90;;
21334;SDS011;10826;52.536;13.432;2022-09-12T11:28:16;8.23;;;2.13;;
21334;SDS011;10826;52.536;13.432;2022-09-12T11:34:16;2.13;;;1.20;;
21334;SDS011;10826;52.536;13.432;2022-09-12T11:43:38;2.67;;;1.53;;
21334;SDS011;10826;52.536;13.432;2022-09-12T11:59:57;2.50;;;1.30;;
21334;SDS011;10826;52.536;13.432;2022-09-12T12:05:56;1.67;;;1.57;;
21334;SDS011;10826;52.536;13.432;2022-09-12T12:08:33;5.87;;;1.30;;
21334;SDS011;10826;52.536;13.432;2022-09-12T12:11:05;2.10;;;1.20;;
21334;SDS011;10826;52.536;13.432;2022-09-12T12:13:47;2.80;;;1.47;;
21334;SDS011;10826;52.536;13.432;2022-09-12T12:16:38;1.07;;;1.07;;
21334;SDS011;10826;52.536;13.432;2022-09-12T12:21:41;1.97;;;1.30;;
21334;SDS011;10826;52.536;13.432;2022-09-12T12:26:44;0.93;;;0.93;;
21334;SDS011;10826;52.536;13.432;2022-09-12T12:34:44;1.33;;;1.23;;
21334;SDS011;10826;52.536;13.432;2022-09-12T12:48:01;1.37;;;1.27;;
21334;SDS011;10826;52.536;13.432;2022-09-12T12:50:39;1.10;;;1.00;;
21334;SDS011;10826;52.536;13.432;2022-09-12T12:53:06;3.37;;;1.30;;
21334;SDS011;10826;52.536;13.432;2022-09-12T12:55:52;3.57;;;1.33;;
21334;SDS011;10826;52.536;13.432;2022-09-12T12:58:36;6.38;;;1.83;;
21334;SDS011;10826;52.536;13.432;2022-09-12T13:03:42;1.85;;;1.10;;
21334;SDS011;10826;52.536;13.432;2022-09-12T13:09:08;5.88;;;1.40;;
21334;SDS011;10826;52.536;13.432;2022-09-12T13:12:10;1.00;;;1.00;;
21334;SDS011;10826;52.536;13.432;2022-09-12T13:17:19;1.30;;;1.17;;
21334;SDS011;10826;52.536;13.432;2022-09-12T13:20:11;1.05;;;1.05;;
21334;SDS011;10826;52.536;13.432;2022-09-12T13:22:47;21.23;;;2.45;;
21334;SDS011;10826;52.536;13.432;2022-09-12T13:25:37;8.02;;;1.33;;
21334;SDS011;10826;52.536;13.432;2022-09-12T13:30:39;4.88;;;1.20;;
21334;SDS011;10826;52.536;13.432;2022-09-12T13:33:19;0.80;;;0.80;;
21334;SDS011;10826;52.536;13.432;2022-09-12T13:39:20;1.45;;;1.35;;
21334;SDS011;10826;52.536;13.432;2022-09-12T13:45:08;1.20;;;1.15;;
21334;SDS011;10826;52.536;13.432;2022-09-12T13:47:42;1.05;;;1.05;;
21334;SDS011;10826;52.536;13.432;2022-09-12T13:50:30;1.63;;;1.30;;
21334;SDS011;10826;52.536;13.432;2022-09-12T13:53:04;1.40;;;1.35;;
21334;SDS011;10826;52.536;13.432;2022-09-12T13:55:44;1.10;;;1.00;;
21334;SDS011;10826;52.536;13.432;2022-09-12T13:58:23;1.05;;;0.95;;
21334;SDS011;10826;52.536;13.432;2022-09-12T14:01:06;0.80;;;0.80;;
21334;SDS011;10826;52.536;13.432;2022-09-12T14:06:43;2.67;;;2.47;;
21334;SDS011;10826;52.536;13.432;2022-09-12T14:09:18;1.30;;;1.30;;
21334;SDS011;10826;52.536;13.432;2022-09-12T14:11:54;1.65;;;1.55;;
21334;SDS011;10826;52.536;13.432;2022-09-12T14:17:13;1.80;;;1.70;;
21334;SDS011;10826;52.536;13.432;2022-09-12T14:19:41;2.53;;;1.40;;
21334;SDS011;10826;52.536;13.432;2022-09-12T14:22:10;1.30;;;1.10;;
21334;SDS011;10826;52.536;13.432;2022-09-12T14:24:47;1.38;;;1.08;;
21334;SDS011;10826;52.536;13.432;2022-09-12T14:27:26;1.17;;;1.17;;
21334;SDS011;10826;52.536;13.432;2022-09-12T14:30:29;2.03;;;1.10;;
21334;SDS011;10826;52.536;13.432;2022-09-12T14:33:21;1.00;;;1.00;;
21334;SDS011;10826;52.536;13.432;2022-09-12T14:35:50;0.90;;;0.90;;
21334;SDS011;10826;52.536;13.432;2022-09-12T14:38:39;1.25;;;1.15;;
21334;SDS011;10826;52.536;13.432;2022-09-12T14:41:12;1.50;;;1.40;;
21334;SDS011;10826;52.536;13.432;2022-09-12T14:43:50;1.40;;;1.30;;
21334;SDS011;10826;52.536;13.432;2022-09-12T14:46:37;1.00;;;1.00;;
21334;SDS011;10826;52.536;13.432;2022-09-12T14:51:47;1.30;;;1.20;;
21334;SDS011;10826;52.536;13.432;2022-09-12T14:56:53;1.23;;;1.13;;
21334;SDS011;10826;52.536;13.432;2022-09-12T15:04:45;1.47;;;1.20;;
21334;SDS011;10826;52.536;13.432;2022-09-12T15:15:37;1.37;;;1.27;;
21334;SDS011;10826;52.536;13.432;2022-09-12T15:18:05;1.00;;;1.00;;
21334;SDS011;10826;52.536;13.432;2022-09-12T15:20:31;1.70;;;1.60;;
21334;SDS011;10826;52.536;13.432;2022-09-12T15:23:00;1.10;;;1.10;;
21334;SDS011;10826;52.536;13.432;2022-09-12T15:25:26;3.67;;;3.10;;
21334;SDS011;10826;52.536;13.432;2022-09-12T15:27:52;3.37;;;3.10;;
21334;SDS011;10826;52.536;13.432;2022-09-12T15:30:23;3.37;;;2.27;;
21334;SDS011;10826;52.536;13.432;2022-09-12T15:32:49;1.97;;;1.50;;
21334;SDS011;10826;52.536;13.432;2022-09-12T15:37:45;3.13;;;1.97;;
21334;SDS011;10826;52.536;13.432;2022-09-12T15:40:12;3.10;;;2.17;;
21334;SDS011;10826;52.536;13.432;2022-09-12T15:42:39;1.80;;;1.70;;
21334;SDS011;10826;52.536;13.432;2022-09-12T15:45:20;1.00;;;1.00;;
21334;SDS011;10826;52.536;13.432;2022-09-12T15:47:52;2.07;;;1.67;;
21334;SDS011;10826;52.536;13.432;2022-09-12T15:50:19;2.13;;;1.60;;
21334;SDS011;10826;52.536;13.432;2022-09-12T15:52:45;2.50;;;1.90;;
21334;SDS011;10826;52.536;13.432;2022-09-12T15:55:22;2.30;;;1.90;;
21334;SDS011;10826;52.536;13.432;2022-09-12T15:57:56;2.23;;;1.50;;
21334;SDS011;10826;52.536;13.432;2022-09-12T16:00:24;1.13;;;1.10;;
21334;SDS011;10826;52.536;13.432;2022-09-12T16:02:51;1.93;;;1.80;;
21334;SDS011;10826;52.536;13.432;2022-09-12T16:05:23;2.40;;;2.20;;
21334;SDS011;10826;52.536;13.432;2022-09-12T16:07:51;1.83;;;1.67;;
21334;SDS011;10826;52.536;13.432;2022-09-12T16:10:26;2.97;;;1.53;;
21334;SDS011;10826;52.536;13.432;2022-09-12T16:12:54;3.90;;;3.13;;
21334;SDS011;10826;52.536;13.432;2022-09-12T16:15:22;2.53;;;2.20;;
21334;SDS011;10826;52.536;13.432;2022-09-12T16:17:50;8.53;;;6.87;;
21334;SDS011;10826;52.536;13.432;2022-09-12T16:20:17;7.40;;;4.43;;
21334;SDS011;10826;52.536;13.432;2022-09-12T16:22:43;2.30;;;2.20;;
21334;SDS011;10826;52.536;13.432;2022-09-12T16:25:10;3.13;;;2.73;;
21334;SDS011;10826;52.536;13.432;2022-09-12T16:27:39;3.33;;;2.43;;
21334;SDS011;10826;52.536;13.432;2022-09-12T16:30:06;2.30;;;2.10;;
21334;SDS011;10826;52.536;13.432;2022-09-12T16:32:33;2.43;;;2.03;;
21334;SDS011;10826;52.536;13.432;2022-09-12T16:34:59;1.67;;;1.57;;
21334;SDS011;10826;52.536;13.432;2022-09-12T16:37:26;2.23;;;2.07;;
21334;SDS011;10826;52.536;13.432;2022-09-12T16:39:52;1.80;;;1.70;;
21334;SDS011;10826;52.536;13.432;2022-09-12T16:42:18;14.80;;;6.13;;
21334;SDS011;10826;52.536;13.432;2022-09-12T16:44:45;2.53;;;2.30;;
21334;SDS011;10826;52.536;13.432;2022-09-12T16:47:11;2.47;;;1.60;;
21334;SDS011;10826;52.536;13.432;2022-09-12T16:49:38;5.03;;;3.63;;
21334;SDS011;10826;52.536;13.432;2022-09-12T16:52:04;2.40;;;2.10;;
21334;SDS011;10826;52.536;13.432;2022-09-12T16:54:31;2.33;;;2.13;;
21334;SDS011;10826;52.536;13.432;2022-09-12T16:56:58;3.17;;;1.97;;
21334;SDS011;10826;52.536;13.432;2022-09-12T16:59:24;1.50;;;1.40;;
21334;SDS011;10826;52.536;13.432;2022-09-12T17:01:51;2.33;;;2.13;;
21334;SDS011;10826;52.536;13.432;2022-09-12T17:04:17;5.13;;;1.60;;
21334;SDS011;10826;52.536;13.432;2022-09-12T17:06:43;2.50;;;1.60;;
21334;SDS011;10826;52.536;13.432;2022-09-12T17:09:09;1.93;;;1.83;;
21334;SDS011;10826;52.536;13.432;2022-09-12T17:11:40;2.20;;;2.00;;
21334;SDS011;10826;52.536;13.432;2022-09-12T17:14:07;1.67;;;1.57;;
21334;SDS011;10826;52.536;13.432;2022-09-12T17:16:35;2.17;;;2.07;;
21334;SDS011;10826;52.536;13.432;2022-09-12T17:19:05;3.40;;;1.83;;
21334;SDS011;10826;52.536;13.432;2022-09-12T17:21:32;1.90;;;1.80;;
21334;SDS011;10826;52.536;13.432;2022-09-12T17:23:59;3.27;;;2.30;;
21334;SDS011;10826;52.536;13.432;2022-09-12T17:26:27;2.40;;;2.20;;
21334;SDS011;10826;52.536;13.432;2022-09-12T17:28:53;3.13;;;2.20;;
21334;SDS011;10826;52.536;13.432;2022-09-12T17:31:19;4.13;;;2.20;;
21334;SDS011;10826;52.536;13.432;2022-09-12T17:33:46;3.10;;;2.53;;
21334;SDS011;10826;52.536;13.432;2022-09-12T17:36:13;3.13;;;2.83;;
21334;SDS011;10826;52.536;13.432;2022-09-12T17:38:43;3.83;;;3.13;;
21334;SDS011;10826;52.536;13.432;2022-09-12T17:41:14;3.47;;;3.17;;
21334;SDS011;10826;52.536;13.432;2022-09-12T17:43:48;2.80;;;2.60;;
21334;SDS011;10826;52.536;13.432;2022-09-12T17:46:19;6.03;;;2.30;;
21334;SDS011;10826;52.536;13.432;2022-09-12T17:48:52;2.40;;;2.30;;
21334;SDS011;10826;52.536;13.432;2022-09-12T17:51:22;2.67;;;2.43;;
21334;SDS011;10826;52.536;13.432;2022-09-12T17:56:36;3.67;;;2.73;;
21334;SDS011;10826;52.536;13.432;2022-09-12T17:59:04;2.97;;;2.73;;
21334;SDS011;10826;52.536;13.432;2022-09-12T18:01:31;3.83;;;3.00;;
21334;SDS011;10826;52.536;13.432;2022-09-12T18:04:17;3.70;;;3.23;;
21334;SDS011;10826;52.536;13.432;2022-09-12T18:06:44;2.90;;;2.60;;
21334;SDS011;10826;52.536;13.432;2022-09-12T18:09:15;4.90;;;3.50;;
21334;SDS011;10826;52.536;13.432;2022-09-12T18:11:44;8.93;;;3.80;;
21334;SDS011;10826;52.536;13.432;2022-09-12T18:14:11;5.70;;;3.30;;
21334;SDS011;10826;52.536;13.432;2022-09-12T18:16:38;4.60;;;3.90;;
21334;SDS011;10826;52.536;13.432;2022-09-12T18:19:03;4.50;;;3.70;;
21334;SDS011;10826;52.536;13.432;2022-09-12T18:21:30;6.00;;;3.70;;
21334;SDS011;10826;52.536;13.432;2022-09-12T18:23:59;6.43;;;3.80;;
21334;SDS011;10826;52.536;13.432;2022-09-12T18:26:29;4.83;;;3.97;;
21334;SDS011;10826;52.536;13.432;2022-09-12T18:28:56;5.13;;;3.87;;
21334;SDS011;10826;52.536;13.432;2022-09-12T18:31:23;4.83;;;4.30;;
21334;SDS011;10826;52.536;13.432;2022-09-12T18:33:53;4.70;;;4.07;;
21334;SDS011;10826;52.536;13.432;2022-09-12T18:36:19;5.13;;;4.13;;
21334;SDS011;10826;52.536;13.432;2022-09-12T18:38:47;9.33;;;4.90;;